Terminal Aerodrome Forecast
Issued by NWS

Current Version | Previous Version | Text Only | Print | Product List | Glossary On
Versions: 1 2 3 4 5 6 7 8 9 10 11 12 13 14 15 16 17 18 19 20 21
543
FTUS43 KILX 220256 AAD
TAFCMI
TAF AMD
KCMI 220256Z 2203/2224 17009KT 1/2SM -RA FG VV002
     FM220500 17010KT 1SM -RADZ BR OVC003
     FM220800 17011G19KT 5SM -SHRA OVC003
     FM221000 17014G22KT 2SM -SHRA VCTS OVC003CB
     FM221200 16015G25KT 1SM SHRA OVC003=

USA.gov is the U.S. government's official web portal to all federal, state and local government web resources and services.